Time;durP1;ratioP1;P1;durP2;ratioP2;P2;SDS_P1;SDS_P2;PMS_P1;PMS_P2;Temp;Humidity;BMP_temperature;BMP_pressure;BME280_temperature;BME280_humidity;BME280_pressure;Samples;Min_cycle;Max_cycle;Signal;HPM_P1;HPM_P2
2022/03/11 00:00:05;;;;;;;1.10;1.10;;;;;;;-4.35;85.21;92842.88;4976852;28;20189;-77
2022/03/11 00:02:35;;;;;;;1.07;1.07;;;;;;;-4.44;84.25;92827.06;4976787;28;20538;-77
2022/03/11 00:05:02;;;;;;;0.70;0.70;;;;;;;-4.39;84.75;92845.22;4976766;28;20677;-77
2022/03/11 00:07:30;;;;;;;0.80;0.80;;;;;;;-4.57;84.96;92835.94;4976129;28;20598;-77
2022/03/11 00:09:58;;;;;;;1.00;1.00;;;;;;;-4.57;84.04;92858.13;4977091;28;20602;-77
2022/03/11 00:12:25;;;;;;;0.90;0.90;;;;;;;-4.86;85.97;92830.50;4975765;28;20258;-77
2022/03/11 00:14:52;;;;;;;1.70;1.03;;;;;;;-4.81;85.62;92838.81;4976314;28;20633;-77
2022/03/11 00:17:21;;;;;;;0.83;0.83;;;;;;;-4.69;84.92;92836.56;4976626;28;20499;-77
2022/03/11 00:19:48;;;;;;;1.10;1.10;;;;;;;-4.60;83.93;92855.56;4976386;28;20555;-77
2022/03/11 00:22:16;;;;;;;1.33;1.33;;;;;;;-4.50;83.34;92861.47;4976736;28;20547;-77
2022/03/11 00:24:43;;;;;;;1.33;1.33;;;;;;;-4.45;83.33;92869.81;4976826;28;20490;-77
2022/03/11 00:27:10;;;;;;;1.30;0.80;;;;;;;-4.58;83.23;92863.84;4977289;28;20676;-77
2022/03/11 00:29:37;;;;;;;1.10;1.10;;;;;;;-4.53;82.26;92869.69;4980470;28;20528;-77
2022/03/11 00:32:05;;;;;;;0.73;0.73;;;;;;;-4.60;82.67;92860.50;4981483;28;20521;-77
2022/03/11 00:34:34;;;;;;;1.27;1.27;;;;;;;-4.74;82.19;92866.84;4980592;28;20565;-77
2022/03/11 00:37:01;;;;;;;0.70;0.70;;;;;;;-4.86;81.12;92849.38;4980372;28;20671;-77
2022/03/11 00:39:29;;;;;;;2.00;1.37;;;;;;;-5.05;81.90;92850.66;4980442;28;20586;-77
2022/03/11 00:41:56;;;;;;;1.23;1.23;;;;;;;-4.87;82.71;92860.84;4981242;28;20642;-77
2022/03/11 00:44:24;;;;;;;0.77;0.77;;;;;;;-4.77;81.96;92877.47;4980326;28;20274;-77
2022/03/11 00:46:51;;;;;;;0.60;0.60;;;;;;;-4.78;81.48;92870.03;4980269;28;20573;-77
2022/03/11 00:49:18;;;;;;;0.67;0.67;;;;;;;-5.07;82.43;92857.22;4980392;28;20653;-77
2022/03/11 00:51:46;;;;;;;0.90;0.90;;;;;;;-5.18;83.57;92837.28;4980662;28;20592;-77
2022/03/11 00:54:14;;;;;;;0.60;0.60;;;;;;;-5.20;84.58;92831.53;4981185;28;20574;-77
2022/03/11 00:56:41;;;;;;;0.60;0.60;;;;;;;-5.04;84.81;92835.09;4980821;28;20554;-77
2022/03/11 00:59:08;;;;;;;1.57;1.57;;;;;;;-4.97;84.12;92851.66;4980273;28;20579;-77
2022/03/11 01:01:35;;;;;;;0.80;0.80;;;;;;;-4.94;83.71;92854.16;4980625;28;20257;-77
2022/03/11 01:04:03;;;;;;;1.17;1.17;;;;;;;-4.99;83.84;92845.03;4979267;28;20200;-77
2022/03/11 01:06:30;;;;;;;1.53;1.53;;;;;;;-4.94;83.37;92841.84;4980119;28;20697;-77
2022/03/11 01:08:58;;;;;;;0.80;0.80;;;;;;;-4.73;83.19;92852.06;4979970;28;20512;-77
2022/03/11 01:11:25;;;;;;;1.10;1.10;;;;;;;-4.79;85.23;92836.38;4980065;28;20604;-77
2022/03/11 01:13:53;;;;;;;1.17;1.17;;;;;;;-4.80;85.77;92835.53;4978844;28;20245;-77
2022/03/11 01:16:21;;;;;;;0.70;0.70;;;;;;;-4.80;85.86;92827.31;4979517;28;20189;-77
2022/03/11 01:18:48;;;;;;;0.97;0.97;;;;;;;-4.72;85.69;92820.88;4980339;28;20197;-77
2022/03/11 01:21:16;;;;;;;1.17;1.17;;;;;;;-4.60;86.01;92834.22;4979504;28;20579;-77
2022/03/11 01:23:43;;;;;;;0.70;0.70;;;;;;;-4.77;86.71;92817.50;4979028;28;20542;-77
2022/03/11 01:26:12;;;;;;;11.83;1.57;;;;;;;-4.71;86.47;92823.38;4979727;28;20515;-77
2022/03/11 01:28:42;;;;;;;0.83;0.83;;;;;;;-4.87;86.25;92828.84;4979497;28;20595;-77
2022/03/11 01:31:11;;;;;;;0.70;0.70;;;;;;;-4.94;86.95;92823.75;4979287;28;20577;-77
2022/03/11 01:33:38;;;;;;;1.10;1.10;;;;;;;-4.92;86.99;92822.16;4979935;28;20608;-77
2022/03/11 01:36:06;;;;;;;1.23;1.23;;;;;;;-4.80;87.07;92819.94;4979263;28;20565;-77
2022/03/11 01:38:34;;;;;;;0.60;0.60;;;;;;;-4.78;86.50;92810.91;4978964;28;20219;-77
2022/03/11 01:41:02;;;;;;;0.77;0.77;;;;;;;-4.58;84.58;92829.34;4980071;28;20583;-77
2022/03/11 01:43:31;;;;;;;0.90;0.90;;;;;;;-4.47;84.63;92830.34;4978988;28;20656;-77
2022/03/11 01:45:59;;;;;;;0.83;0.83;;;;;;;-4.69;85.80;92818.47;4979255;28;20575;-77
2022/03/11 01:48:27;;;;;;;1.00;1.00;;;;;;;-4.57;85.35;92826.06;4980007;28;20278;-77
2022/03/11 01:50:54;;;;;;;0.70;0.70;;;;;;;-4.60;85.49;92809.59;4978969;28;20551;-77
2022/03/11 01:53:21;;;;;;;0.60;0.60;;;;;;;-4.60;86.27;92811.22;4979019;28;20507;-77
2022/03/11 01:55:49;;;;;;;1.07;1.07;;;;;;;-4.55;85.36;92821.16;4978788;28;20634;-77
2022/03/11 01:58:17;;;;;;;0.90;0.90;;;;;;;-4.68;84.92;92822.59;4978821;28;20591;-78
2022/03/11 02:00:46;;;;;;;1.33;1.23;;;;;;;-4.56;84.17;92831.84;4979245;28;20600;-77
2022/03/11 02:03:13;;;;;;;0.90;0.90;;;;;;;-4.55;84.25;92821.16;4978279;28;20516;-77
2022/03/11 02:05:43;;;;;;;0.63;0.63;;;;;;;-4.82;85.89;92809.19;4978670;28;20612;-78
2022/03/11 02:08:11;;;;;;;1.00;1.00;;;;;;;-4.76;86.97;92809.31;4978974;28;20215;-77
2022/03/11 02:10:38;;;;;;;1.27;1.27;;;;;;;-4.85;87.32;92792.75;4978537;28;20635;-78
2022/03/11 02:13:06;;;;;;;0.93;0.93;;;;;;;-4.66;85.77;92808.66;4978858;28;20502;-77
2022/03/11 02:15:33;;;;;;;0.73;0.73;;;;;;;-4.55;85.05;92819.50;4978657;28;20633;-77
2022/03/11 02:18:02;;;;;;;0.90;0.90;;;;;;;-4.63;86.90;92808.72;4978283;28;20507;-77
2022/03/11 02:20:30;;;;;;;0.60;0.60;;;;;;;-4.82;87.39;92805.09;4978271;28;20652;-77
2022/03/11 02:22:58;;;;;;;0.87;0.87;;;;;;;-4.70;87.90;92817.63;4978538;28;20589;-77
2022/03/11 02:25:27;;;;;;;0.77;0.77;;;;;;;-4.70;86.16;92812.72;4978791;28;20232;-77
2022/03/11 02:27:54;;;;;;;0.87;0.87;;;;;;;-4.56;85.51;92826.91;4978932;28;20557;-77
2022/03/11 02:30:22;;;;;;;1.03;1.03;;;;;;;-4.61;85.97;92820.25;4978348;28;20593;-76
2022/03/11 02:32:50;;;;;;;0.80;0.80;;;;;;;-4.59;85.90;92825.22;4978326;28;20194;-76
2022/03/11 02:35:18;;;;;;;1.00;1.00;;;;;;;-4.63;86.33;92829.25;4977991;28;20536;-76
2022/03/11 02:37:46;;;;;;;1.10;1.00;;;;;;;-4.69;86.67;92830.78;4978430;28;20668;-76
2022/03/11 02:40:13;;;;;;;3.43;1.20;;;;;;;-4.77;87.42;92822.44;4978363;28;20616;-76
2022/03/11 02:42:42;;;;;;;1.03;1.03;;;;;;;-4.78;87.82;92828.16;4977816;28;20600;-76
2022/03/11 02:45:10;;;;;;;1.47;1.47;;;;;;;-4.86;87.39;92832.97;4977743;28;20596;-76
2022/03/11 02:47:37;;;;;;;1.83;1.30;;;;;;;-5.15;87.91;92794.66;4977871;28;20584;-76
2022/03/11 02:50:06;;;;;;;1.43;1.37;;;;;;;-5.06;87.94;92810.44;4977772;28;20660;-76
2022/03/11 02:52:33;;;;;;;1.30;1.30;;;;;;;-4.94;88.67;92828.69;4978785;28;20632;-76
2022/03/11 02:55:00;;;;;;;2.00;2.00;;;;;;;-4.95;87.98;92829.50;4977328;28;20706;-76
2022/03/11 02:57:28;;;;;;;0.97;0.97;;;;;;;-4.93;87.79;92838.56;4977412;28;20541;-76
2022/03/11 02:59:56;;;;;;;0.87;0.87;;;;;;;-4.93;87.14;92832.81;4977323;28;20580;-76
2022/03/11 03:02:23;;;;;;;0.87;0.87;;;;;;;-4.96;86.87;92840.16;4981707;28;20588;-76
2022/03/11 03:04:50;;;;;;;0.67;0.67;;;;;;;-4.99;86.89;92835.16;4995786;28;20503;-76
2022/03/11 03:07:18;;;;;;;0.80;0.80;;;;;;;-5.07;87.09;92822.75;4996277;28;20525;-76
2022/03/11 03:09:45;;;;;;;1.10;1.10;;;;;;;-5.11;86.81;92821.84;4977062;28;20623;-76
2022/03/11 03:12:12;;;;;;;1.10;1.10;;;;;;;-5.03;86.67;92835.13;4977309;28;20193;-76
2022/03/11 03:14:40;;;;;;;2.93;2.73;;;;;;;-5.13;88.02;92828.38;4978114;28;20233;-77
2022/03/11 03:17:08;;;;;;;1.20;1.20;;;;;;;-5.11;86.83;92830.84;4977512;28;20544;-77
2022/03/11 03:19:35;;;;;;;2.07;2.07;;;;;;;-5.10;86.26;92833.34;4977205;28;20606;-77
2022/03/11 03:22:04;;;;;;;2.17;1.57;;;;;;;-5.11;86.46;92834.16;4977570;28;20569;-76
2022/03/11 03:24:31;;;;;;;1.63;1.63;;;;;;;-5.14;86.94;92831.63;4977662;28;20666;-77
2022/03/11 03:26:58;;;;;;;0.90;0.90;;;;;;;-5.18;86.24;92839.75;4977496;28;20584;-77
2022/03/11 03:29:25;;;;;;;0.70;0.70;;;;;;;-5.30;86.35;92828.88;4977489;28;20195;-77
2022/03/11 03:31:57;;;;;;;1.53;1.53;;;;;;;-5.32;86.14;92840.28;4977259;28;20605;-76
2022/03/11 03:34:28;;;;;;;1.47;1.47;;;;;;;-5.32;86.20;92846.06;4976827;28;20650;-76
2022/03/11 03:36:58;;;;;;;1.10;1.10;;;;;;;-5.34;86.03;92844.34;4977147;28;20572;-76
2022/03/11 03:39:25;;;;;;;1.37;1.37;;;;;;;-5.47;85.76;92839.22;4976784;28;20547;-76
2022/03/11 03:41:52;;;;;;;0.90;0.90;;;;;;;-5.48;85.46;92844.09;4981247;28;20195;-76
2022/03/11 03:44:20;;;;;;;0.80;0.80;;;;;;;-5.50;85.13;92850.59;4978102;28;20580;-76
2022/03/11 03:46:47;;;;;;;1.23;1.23;;;;;;;-5.54;84.28;92854.66;4976332;28;20509;-76
2022/03/11 03:49:14;;;;;;;1.87;1.80;;;;;;;-5.57;84.46;92858.66;4976544;28;20547;-76
2022/03/11 03:51:44;;;;;;;0.83;0.83;;;;;;;-5.63;84.49;92860.97;4976677;28;20631;-77
2022/03/11 03:54:11;;;;;;;1.00;1.00;;;;;;;-5.67;84.28;92862.56;4976545;28;20504;-76
2022/03/11 03:56:39;;;;;;;0.97;0.97;;;;;;;-5.76;83.80;92857.47;4976878;28;20665;-76
2022/03/11 03:59:06;;;;;;;0.90;0.90;;;;;;;-5.85;83.21;92850.69;4977919;28;20569;-76
2022/03/11 04:01:34;;;;;;;1.00;1.00;;;;;;;-5.87;81.62;92873.66;4975912;28;20226;-77
2022/03/11 04:04:02;;;;;;;1.27;1.27;;;;;;;-6.00;81.96;92872.53;4975450;28;20242;-76
2022/03/11 04:06:30;;;;;;;0.60;0.60;;;;;;;-6.14;82.58;92863.19;4976042;28;20621;-76
2022/03/11 04:09:00;;;;;;;1.17;1.17;;;;;;;-6.21;83.49;92857.31;4976091;28;20577;-77
2022/03/11 04:11:28;;;;;;;2.00;2.00;;;;;;;-6.21;81.14;92874.53;4976542;28;20606;-76
2022/03/11 04:13:55;;;;;;;2.10;2.00;;;;;;;-6.25;81.98;92872.75;4976094;28;20611;-76
2022/03/11 04:16:23;;;;;;;0.90;0.90;;;;;;;-6.30;81.76;92876.75;4976152;28;20229;-76
2022/03/11 04:18:51;;;;;;;1.53;1.53;;;;;;;-6.44;82.26;92873.16;4977020;28;20558;-76
2022/03/11 04:21:19;;;;;;;0.70;0.70;;;;;;;-6.76;84.51;92855.19;4975765;28;20592;-76
2022/03/11 04:23:48;;;;;;;1.30;1.20;;;;;;;-7.06;85.43;92842.94;4976536;28;20589;-76
2022/03/11 04:26:17;;;;;;;1.57;1.47;;;;;;;-7.00;86.72;92852.94;4975452;28;20673;-76
2022/03/11 04:28:44;;;;;;;1.07;1.07;;;;;;;-6.85;84.41;92869.66;4975941;28;20461;-76
2022/03/11 04:31:13;;;;;;;1.00;1.00;;;;;;;-6.98;84.71;92852.94;4976420;28;20579;-76
2022/03/11 04:33:41;;;;;;;1.37;1.37;;;;;;;-7.12;85.20;92862.44;4976298;28;20479;-75
2022/03/11 04:36:10;;;;;;;1.10;1.10;;;;;;;-6.95;82.70;92880.03;4976076;28;20542;-75
2022/03/11 04:38:37;;;;;;;2.00;1.10;;;;;;;-7.22;84.15;92868.72;4976865;28;20524;-76
2022/03/11 04:41:04;;;;;;;1.57;1.57;;;;;;;-7.31;84.47;92878.28;4977020;28;20192;-76
2022/03/11 04:43:33;;;;;;;1.07;1.07;;;;;;;-7.47;84.84;92881.09;4976084;28;20515;-76
2022/03/11 04:46:03;;;;;;;2.40;2.30;;;;;;;-7.54;85.51;92889.06;4975652;28;20576;-76
2022/03/11 04:48:31;;;;;;;1.43;1.43;;;;;;;-7.32;83.40;92907.69;4975648;28;20524;-76
2022/03/11 04:50:58;;;;;;;2.90;2.80;;;;;;;-7.37;84.29;92894.44;4976543;28;20663;-76
2022/03/11 04:53:25;;;;;;;3.10;3.00;;;;;;;-7.47;84.38;92887.63;4975431;28;20605;-76
2022/03/11 04:55:53;;;;;;;1.03;1.03;;;;;;;-7.45;83.47;92898.31;4975804;28;20211;-75
2022/03/11 04:58:20;;;;;;;2.47;2.47;;;;;;;-7.44;83.03;92913.09;4975696;28;20221;-75
2022/03/11 05:00:48;;;;;;;3.90;2.63;;;;;;;-7.58;82.57;92909.41;4976352;28;20533;-75
2022/03/11 05:03:16;;;;;;;2.57;2.37;;;;;;;-7.78;82.53;92903.09;4974889;28;20659;-76
2022/03/11 05:05:46;;;;;;;6.37;3.03;;;;;;;-7.64;83.29;92902.69;4975827;28;20462;-75
2022/03/11 05:08:13;;;;;;;2.40;2.27;;;;;;;-7.75;82.88;92908.09;4974392;28;20579;-76
2022/03/11 05:10:40;;;;;;;2.50;2.33;;;;;;;-7.82;83.41;92906.22;4973403;28;20194;-76
2022/03/11 05:13:07;;;;;;;2.30;1.63;;;;;;;-7.85;83.76;92894.72;4975205;28;20320;-75
2022/03/11 05:15:37;;;;;;;1.73;1.73;;;;;;;-7.75;83.31;92916.28;4978157;28;20222;-75
2022/03/11 05:18:08;;;;;;;8.13;4.93;;;;;;;-7.43;82.04;92927.00;4979536;28;20556;-75
2022/03/11 05:20:35;;;;;;;2.43;2.33;;;;;;;-7.43;80.30;92931.06;4979195;28;20217;-75
2022/03/11 05:23:02;;;;;;;4.03;3.67;;;;;;;-7.59;80.41;92910.19;4978900;28;20376;-75
2022/03/11 05:25:30;;;;;;;1.53;1.53;;;;;;;-7.33;80.88;92930.56;4979504;28;20555;-75
2022/03/11 05:27:57;;;;;;;1.97;1.93;;;;;;;-6.91;78.64;92944.00;4978367;28;20591;-75
2022/03/11 05:30:25;;;;;;;1.13;1.13;;;;;;;-6.98;78.28;92948.69;4978445;28;20595;-74
2022/03/11 05:32:52;;;;;;;1.00;1.00;;;;;;;-7.13;78.60;92941.75;4978208;28;20199;-74
2022/03/11 05:35:21;;;;;;;1.83;1.80;;;;;;;-7.13;79.69;92919.66;4978951;28;20642;-76
2022/03/11 05:37:48;;;;;;;3.30;1.93;;;;;;;-7.19;79.60;92924.41;4992710;28;20676;-77
2022/03/11 05:40:15;;;;;;;1.53;1.53;;;;;;;-7.16;79.95;92912.22;4978773;28;20312;-76
2022/03/11 05:42:45;;;;;;;2.27;2.17;;;;;;;-7.23;80.47;92898.13;4983400;28;20503;-76
2022/03/11 05:45:13;;;;;;;2.40;2.30;;;;;;;-7.21;82.00;92911.28;4976758;28;20612;-77
2022/03/11 05:47:42;;;;;;;3.27;3.17;;;;;;;-7.29;82.32;92900.41;4984383;28;20221;-76
2022/03/11 05:50:10;;;;;;;4.13;3.90;;;;;;;-7.38;81.69;92905.06;4980878;28;20305;-76
2022/03/11 05:52:42;;;;;;;3.00;2.90;;;;;;;-7.47;83.77;92883.56;4988407;28;20609;-77
2022/03/11 05:55:11;;;;;;;2.53;2.53;;;;;;;-7.37;84.26;92901.81;4981211;28;20708;-76
2022/03/11 05:57:38;;;;;;;2.60;2.50;;;;;;;-7.30;84.24;92903.66;4989362;28;20552;-77
2022/03/11 06:00:08;;;;;;;4.17;3.07;;;;;;;-7.28;84.08;92894.72;4977765;28;20591;-76
2022/03/11 06:02:38;;;;;;;2.20;2.03;;;;;;;-6.98;81.81;92910.25;4977179;28;20531;-75
2022/03/11 06:05:08;;;;;;;2.50;2.43;;;;;;;-6.77;80.58;92923.09;4975399;28;20613;-75
2022/03/11 06:07:35;;;;;;;3.30;3.00;;;;;;;-6.71;80.73;92913.44;4976454;28;20199;-75
2022/03/11 06:10:05;;;;;;;12.03;6.80;;;;;;;-6.52;80.79;92916.34;4976264;28;20627;-75
2022/03/11 06:12:32;;;;;;;5.40;2.73;;;;;;;-6.56;78.53;92937.56;4987014;28;20627;-76
2022/03/11 06:15:09;;;;;;;1.70;1.70;;;;;;;-6.58;78.09;92945.66;4980289;28;20619;-76
2022/03/11 06:17:36;;;;;;;3.20;3.10;;;;;;;-6.79;78.37;92933.66;4986323;28;20554;-77
2022/03/11 06:20:05;;;;;;;2.73;1.83;;;;;;;-6.80;78.48;92951.63;4975631;28;20199;-77
2022/03/11 06:22:33;;;;;;;1.97;1.97;;;;;;;-6.87;78.72;92949.84;4986230;28;20492;-77
2022/03/11 06:25:00;;;;;;;2.73;2.73;;;;;;;-6.99;78.63;92956.88;4983216;28;20574;-77
2022/03/11 06:27:29;;;;;;;1.70;1.70;;;;;;;-7.02;79.25;92950.25;4978581;28;20195;-77
2022/03/11 06:29:56;;;;;;;1.43;1.43;;;;;;;-7.15;78.41;92948.22;4977881;28;20659;-78
2022/03/11 06:32:24;;;;;;;2.70;2.50;;;;;;;-7.03;79.21;92952.66;4976211;28;20591;-77
2022/03/11 06:34:51;;;;;;;3.87;3.77;;;;;;;-6.96;79.32;92961.84;4980624;28;20594;-78
2022/03/11 06:37:18;;;;;;;5.40;1.87;;;;;;;-6.87;79.69;92959.66;4979861;28;20604;-77
2022/03/11 06:39:45;;;;;;;2.13;2.03;;;;;;;-6.96;79.13;92930.78;4982485;28;20472;-77
2022/03/11 06:42:13;;;;;;;1.37;1.30;;;;;;;-6.84;79.15;92938.47;4979573;28;20694;-77
2022/03/11 06:44:41;;;;;;;1.87;1.87;;;;;;;-6.69;78.59;92960.13;4979401;28;20226;-77
2022/03/11 06:47:09;;;;;;;2.07;2.07;;;;;;;-6.61;79.35;92955.41;4979899;28;20504;-77
2022/03/11 06:49:36;;;;;;;1.80;1.70;;;;;;;-6.49;79.75;92936.91;4983441;28;20265;-77
2022/03/11 06:52:04;;;;;;;2.37;2.27;;;;;;;-6.41;79.55;92939.53;4981094;28;20614;-78
2022/03/11 06:54:31;;;;;;;6.73;2.37;;;;;;;-6.44;79.18;92942.78;4983101;28;20626;-78
2022/03/11 06:56:58;;;;;;;2.10;2.10;;;;;;;-6.33;80.46;92943.88;4979402;28;20212;-77
2022/03/11 06:59:26;;;;;;;3.27;3.17;;;;;;;-6.12;77.88;92957.47;4982203;28;20651;-77
2022/03/11 07:01:54;;;;;;;6.13;4.70;;;;;;;-5.93;76.70;92959.59;4985075;28;20647;-77
2022/03/11 07:04:22;;;;;;;3.60;3.40;;;;;;;-5.76;76.71;92957.47;4981720;28;20564;-77
2022/03/11 07:06:49;;;;;;;2.67;2.57;;;;;;;-5.64;78.98;92943.84;4983985;28;20605;-76
2022/03/11 07:09:16;;;;;;;7.70;4.97;;;;;;;-5.43;76.77;92966.44;4984952;28;20218;-77
2022/03/11 07:11:46;;;;;;;3.80;3.60;;;;;;;-5.41;76.27;92976.34;4979629;28;20588;-76
2022/03/11 07:14:13;;;;;;;4.50;4.20;;;;;;;-5.40;75.40;92965.66;4979009;28;20591;-78
2022/03/11 07:16:41;;;;;;;5.53;5.13;;;;;;;-5.32;75.29;92966.69;4978422;28;20195;-77
2022/03/11 07:19:09;;;;;;;4.43;4.23;;;;;;;-5.22;75.18;92971.00;4977177;28;20307;-78
2022/03/11 07:21:37;;;;;;;6.67;6.33;;;;;;;-5.21;75.52;92969.34;4979636;28;20219;-76
2022/03/11 07:24:05;;;;;;;7.00;6.43;;;;;;;-5.17;75.77;92959.59;4979410;28;20519;-77
2022/03/11 07:26:32;;;;;;;4.43;4.27;;;;;;;-5.04;75.58;92961.53;4979069;28;20499;-76
2022/03/11 07:29:01;;;;;;;3.03;3.03;;;;;;;-4.87;76.49;92951.16;4976178;28;20623;-77
2022/03/11 07:31:28;;;;;;;6.73;5.93;;;;;;;-4.78;75.87;92951.34;4975850;28;20583;-76
2022/03/11 07:33:55;;;;;;;14.50;7.17;;;;;;;-4.57;74.96;92963.25;4979240;28;20600;-76
2022/03/11 07:36:24;;;;;;;7.67;6.70;;;;;;;-4.37;74.05;92965.28;4979147;28;20334;-78
2022/03/11 07:38:54;;;;;;;7.13;6.50;;;;;;;-4.23;72.57;92973.75;4976531;28;20231;-79
2022/03/11 07:41:22;;;;;;;7.33;6.87;;;;;;;-4.21;72.47;92962.28;4978981;28;20550;-80
2022/03/11 07:43:49;;;;;;;2.90;2.90;;;;;;;-4.12;70.66;92978.03;4977139;28;20526;-80
2022/03/11 07:46:17;;;;;;;3.70;3.60;;;;;;;-4.04;68.75;92987.22;4981226;28;20561;-81
2022/03/11 07:48:44;;;;;;;2.97;2.70;;;;;;;-3.90;67.85;92998.19;4981414;28;20584;-79
2022/03/11 07:51:12;;;;;;;1.30;1.30;;;;;;;-3.82;67.12;92998.28;4977010;28;20603;-80
2022/03/11 07:53:40;;;;;;;2.07;2.07;;;;;;;-4.24;67.92;92905.50;4975780;28;20517;-79
2022/03/11 07:56:10;;;;;;;3.70;3.60;;;;;;;-3.67;68.43;92970.56;4976625;28;20595;-77
2022/03/11 07:58:39;;;;;;;2.80;2.70;;;;;;;-3.67;65.76;92954.13;4974643;28;20191;-80
2022/03/11 08:01:07;;;;;;;1.27;1.27;;;;;;;-3.91;64.40;92912.63;4979944;28;20479;-82
2022/03/11 08:03:34;;;;;;;5.07;4.87;;;;;;;-3.43;66.14;92951.16;4976745;28;20721;-79
2022/03/11 08:06:02;;;;;;;2.33;2.30;;;;;;;-2.94;65.47;93012.00;4981517;28;20585;-83
2022/03/11 08:08:30;;;;;;;3.03;2.93;;;;;;;-2.97;65.05;92984.75;4976804;28;20606;-80
2022/03/11 08:10:59;;;;;;;1.80;1.80;;;;;;;-2.64;62.26;93049.47;4992776;28;20297;-82
2022/03/11 08:13:27;;;;;;;1.53;1.53;;;;;;;-2.65;60.98;93042.84;4976971;28;20559;-81
2022/03/11 08:15:55;;;;;;;1.57;1.47;;;;;;;-2.79;60.63;93001.47;4976145;28;20283;-81
2022/03/11 08:18:22;;;;;;;1.83;1.73;;;;;;;-2.65;59.65;93042.03;4980136;28;20563;-81
2022/03/11 08:20:50;;;;;;;2.43;2.40;;;;;;;-2.60;59.90;93038.81;4977399;28;20553;-80
2022/03/11 08:23:17;;;;;;;5.43;4.90;;;;;;;-2.51;60.32;93016.66;4982714;28;20558;-80
2022/03/11 08:25:45;;;;;;;4.00;3.80;;;;;;;-2.29;61.63;93009.47;4983451;28;20462;-78
2022/03/11 08:28:15;;;;;;;2.33;2.23;;;;;;;-2.30;58.25;93022.66;4984849;28;20497;-77
2022/03/11 08:30:42;;;;;;;2.13;2.13;;;;;;;-2.04;58.95;93037.81;4982993;28;20674;-77
2022/03/11 08:33:11;;;;;;;1.23;1.23;;;;;;;-2.06;59.19;93032.00;4980455;28;20579;-76
2022/03/11 08:35:39;;;;;;;2.03;2.03;;;;;;;-1.83;59.90;93014.09;4982647;28;20581;-79
2022/03/11 08:38:07;;;;;;;2.17;2.07;;;;;;;-1.40;59.33;93031.81;4983591;28;20678;-77
2022/03/11 08:40:35;;;;;;;0.93;0.93;;;;;;;-1.37;56.44;93035.16;4983009;28;21498;-77
2022/03/11 08:43:03;;;;;;;1.37;1.37;;;;;;;-1.07;56.67;93049.44;4982296;28;20566;-77
2022/03/11 08:45:33;;;;;;;2.37;2.30;;;;;;;-1.13;57.72;93014.69;4984277;28;20199;-76
2022/03/11 08:48:00;;;;;;;2.70;1.40;;;;;;;-1.22;55.39;92994.78;4977180;28;20604;-76
2022/03/11 08:50:28;;;;;;;1.83;1.83;;;;;;;-1.29;56.51;92976.56;4977765;28;20514;-76
2022/03/11 08:52:55;;;;;;;1.13;1.13;;;;;;;-1.08;54.33;93037.03;4977815;28;20623;-77
2022/03/11 08:55:22;;;;;;;3.13;1.27;;;;;;;-1.37;55.44;93039.28;4980807;28;20467;-76
2022/03/11 08:57:51;;;;;;;2.97;2.87;;;;;;;-1.16;56.51;93041.09;4985679;28;20584;-76
2022/03/11 09:00:20;;;;;;;5.90;4.43;;;;;;;-1.09;58.28;93021.34;4984955;28;20582;-76
2022/03/11 09:02:49;;;;;;;10.40;9.43;;;;;;;-1.03;59.18;92994.09;4983028;28;20603;-75
2022/03/11 09:05:20;;;;;;;4.27;4.13;;;;;;;-1.04;58.40;92991.59;4985446;28;20553;-77
2022/03/11 09:07:49;;;;;;;1.10;1.10;;;;;;;-1.07;57.42;93023.84;4984331;28;20603;-77
2022/03/11 09:10:19;;;;;;;1.90;1.80;;;;;;;-0.91;58.40;93003.28;4984803;28;20709;-78
2022/03/11 09:12:47;;;;;;;1.50;1.50;;;;;;;-0.90;56.77;93012.34;4978043;28;20195;-77
2022/03/11 09:15:15;;;;;;;2.23;2.17;;;;;;;-0.78;58.22;93019.88;4980668;28;20598;-78
2022/03/11 09:17:44;;;;;;;8.10;3.00;;;;;;;-0.85;57.75;93010.75;4991825;28;20594;-77
2022/03/11 09:20:14;;;;;;;1.30;1.30;;;;;;;-1.28;57.52;93007.13;4984126;28;20587;-78
2022/03/11 09:22:42;;;;;;;30.43;2.90;;;;;;;-1.17;59.52;92993.16;4981837;28;20473;-78
2022/03/11 09:25:10;;;;;;;6.10;5.80;;;;;;;-0.87;58.79;92988.41;4987033;28;20222;-80
2022/03/11 09:27:39;;;;;;;2.27;1.73;;;;;;;-0.84;59.29;92938.00;4982624;28;20492;-77
2022/03/11 09:30:08;;;;;;;1.60;1.60;;;;;;;-0.37;59.24;92960.53;4984889;28;20199;-77
2022/03/11 09:32:37;;;;;;;1.87;1.77;;;;;;;-0.02;56.24;93015.25;4986661;28;20478;-77
2022/03/11 09:35:05;;;;;;;2.60;2.50;;;;;;;0.24;56.22;93020.28;4979671;28;20587;-77
2022/03/11 09:37:34;;;;;;;1.00;1.00;;;;;;;0.03;54.95;93017.75;4982918;28;20207;-77
2022/03/11 09:40:01;;;;;;;2.00;2.00;;;;;;;-0.07;54.93;93010.28;4983578;28;20482;-78
2022/03/11 09:42:29;;;;;;;3.20;2.97;;;;;;;-0.26;55.63;93018.47;4981063;28;20472;-75
2022/03/11 09:44:57;;;;;;;1.63;1.63;;;;;;;-0.39;56.81;92989.47;4982907;28;20560;-78
2022/03/11 09:47:25;;;;;;;1.47;1.47;;;;;;;-0.39;55.14;93023.41;4979271;28;20192;-77
2022/03/11 09:49:52;;;;;;;4.73;3.70;;;;;;;-0.14;57.75;92995.34;4981089;28;20603;-76
2022/03/11 09:52:21;;;;;;;16.07;14.50;;;;;;;-0.03;56.38;93006.16;4983916;28;20397;-76
2022/03/11 09:54:50;;;;;;;4.13;3.83;;;;;;;0.11;53.13;93026.91;4987353;28;20559;-77
2022/03/11 09:57:19;;;;;;;4.10;3.77;;;;;;;0.29;52.24;93031.06;4982447;28;20516;-77
2022/03/11 09:59:50;;;;;;;5.47;5.20;;;;;;;0.03;54.38;93033.47;4975894;28;20664;-77
2022/03/11 10:02:19;;;;;;;2.60;2.60;;;;;;;-0.16;56.12;93004.44;4977939;28;20231;-77
2022/03/11 10:04:51;;;;;;;4.47;4.03;;;;;;;-0.38;55.35;92958.03;4984727;28;20561;-76
2022/03/11 10:07:26;;;;;;;5.87;2.90;;;;;;;-0.16;53.92;93010.22;4978276;28;20633;-77
2022/03/11 10:09:55;;;;;;;2.03;2.03;;;;;;;-0.15;52.96;93039.22;4981280;28;20516;-80
2022/03/11 10:12:24;;;;;;;1.67;1.67;;;;;;;0.20;50.60;93049.25;4980313;28;20574;-77
2022/03/11 10:15:00;;;;;;;2.53;2.43;;;;;;;0.69;51.25;93040.22;4984184;28;20225;-79
2022/03/11 10:17:28;;;;;;;2.83;2.63;;;;;;;1.24;48.66;93055.16;4983625;28;20284;-78
2022/03/11 10:19:59;;;;;;;3.63;3.33;;;;;;;0.80;48.13;92988.03;4982798;28;20290;-78
2022/03/11 10:22:27;;;;;;;1.73;1.73;;;;;;;0.97;49.20;93053.50;4976842;28;20476;-80
2022/03/11 10:24:55;;;;;;;3.60;3.50;;;;;;;0.59;50.89;93033.59;4978228;28;20212;-79
2022/03/11 10:27:23;;;;;;;2.00;2.00;;;;;;;-0.07;52.19;92962.28;4981687;28;20599;-79
2022/03/11 10:29:52;;;;;;;2.47;2.37;;;;;;;-0.30;52.94;92981.25;4985851;28;20596;-78
2022/03/11 10:32:25;;;;;;;4.13;3.90;;;;;;;-0.45;54.98;92994.41;4979557;28;20688;-78
2022/03/11 10:34:53;;;;;;;2.67;2.57;;;;;;;-0.56;53.81;93006.75;4982538;28;20580;-78
2022/03/11 10:37:20;;;;;;;7.50;4.30;;;;;;;-0.61;55.99;92966.22;4982047;28;20490;-81
2022/03/11 10:39:48;;;;;;;2.77;2.57;;;;;;;-0.38;54.15;92991.13;4982296;28;20569;-79
2022/03/11 10:42:22;;;;;;;1.33;1.33;;;;;;;-0.49;54.16;92973.72;4979720;28;20665;-78
2022/03/11 10:44:58;;;;;;;2.20;2.10;;;;;;;-0.14;52.88;93000.31;4979186;28;20529;-78
2022/03/11 10:47:26;;;;;;;2.07;1.97;;;;;;;-0.45;54.65;92943.13;4979988;28;20583;-79
2022/03/11 10:49:55;;;;;;;3.43;3.33;;;;;;;-0.57;53.50;92923.25;4979468;28;20587;-78
2022/03/11 10:52:33;;;;;;;1.43;1.43;;;;;;;-0.09;53.28;92983.78;4978186;28;20200;-79
2022/03/11 10:55:05;;;;;;;3.07;2.97;;;;;;;0.00;53.91;92972.22;4980597;28;20550;-78
2022/03/11 10:57:38;;;;;;;3.03;2.80;;;;;;;0.09;55.36;92961.47;4978700;28;20513;-78
2022/03/11 11:00:23;;;;;;;3.73;3.53;;;;;;;0.04;53.89;92959.81;4977320;28;20543;-78
2022/03/11 11:02:52;;;;;;;5.60;4.73;;;;;;;-0.04;54.13;92940.75;4979337;28;20587;-77
2022/03/11 11:05:23;;;;;;;3.07;2.67;;;;;;;0.52;54.68;92921.75;4979519;28;20565;-78
2022/03/11 11:07:51;;;;;;;3.17;2.90;;;;;;;1.33;54.19;92940.69;4979378;28;20207;-78
2022/03/11 11:10:20;;;;;;;2.53;2.43;;;;;;;2.75;54.25;92950.66;4980877;28;20242;-78
2022/03/11 11:12:51;;;;;;;2.23;2.23;;;;;;;4.06;49.82;92975.06;4979751;28;20592;-78
2022/03/11 11:15:19;;;;;;;4.30;4.10;;;;;;;5.08;47.13;93001.13;4979769;28;20657;-75
2022/03/11 11:17:50;;;;;;;3.83;3.53;;;;;;;5.06;44.15;93030.41;4981240;28;20500;-75
2022/03/11 11:20:19;;;;;;;5.30;4.83;;;;;;;4.64;45.64;93024.34;4982025;28;20612;-74
2022/03/11 11:22:48;;;;;;;7.40;5.10;;;;;;;4.07;45.42;93020.06;4979585;28;20486;-75
2022/03/11 11:25:17;;;;;;;11.00;5.30;;;;;;;3.32;47.84;93001.75;4980159;28;20195;-79
2022/03/11 11:27:45;;;;;;;7.07;6.07;;;;;;;1.93;46.97;93011.81;4979855;28;20556;-76
2022/03/11 11:30:18;;;;;;;2.83;2.73;;;;;;;1.39;50.09;92977.16;4978100;28;20302;-76
2022/03/11 11:32:46;;;;;;;2.43;2.33;;;;;;;1.17;49.28;92982.19;4978446;28;20501;-77
2022/03/11 11:35:27;;;;;;;2.30;2.20;;;;;;;0.98;50.26;92967.28;4977552;28;20512;-77
2022/03/11 11:37:56;;;;;;;4.63;3.33;;;;;;;1.10;51.90;92953.16;4984539;28;20580;-76